Portada
METAR-TAF:

METAR-TAF

Aeroports :

Hiroshima, Japó

latitud: 34-26N, longitud: 132-55E, altitud: 331 m

Observació

L'informe es va fer fa 7 hores i 5 minuts, a les 13:00 UTC
Vent 1 kt amb direcció variable
Temperatura 25°C
Humitat 83%
Pressió 1013 hPa
Visibilitat 10 km o més
Escasses núvols a una alçada de 1500 ft
Cel ennuvolat

METAR: RJOA 091300Z VRB01KT 9999 FEW015 BKN/// 25/22 Q1013

Hora: 05:05 (20:05 UTC)

Pronòstic

L'informe es va fer fa 2 hores i 59 minuts, a les 17:06 UTC
Pronòstic vàlid del 09 a les 18 UTC al 11 a les 00 UTC
Vent 4 kt del Oest/Nord-Oest
Visibilitat 10 km o més
Escasses núvols a una alçada de 2000 ft
Evolucionant progressivament
l' 09 a les 20 UTC al 09 a les 22 UTC
Vent 8 kt del Est/Sud-Est
Evolucionant progressivament
l' 10 a les 09 UTC al 10 a les 12 UTC
Vent 5 kt del Oest

TAF: RJOA 091706Z 0918/1100 30004KT 9999 FEW020 BECMG 0920/0922 12008KT BECMG 1009/1012 26005KT

Observacions i pronòstics meteorològics de més de 4000 aeroports (METAR i TAF).

Les estacions disponibles són els punts grocs i vermells al mapa.

Posi el ratolí al punt desitjat per veure el nom de l'estació.

Feu clic per veure les observacions i els pronòstics meteorològics.

Per canviar el mapa: feu clic els botons verds amb una creu de color negre per apropar; al botó verd amb un guió per allunyar la imatge; o en les fletxes verdes per a mapes adjacents.


METAR-TAF: